Time;durP1;ratioP1;P1;durP2;ratioP2;P2;SDS_P1;SDS_P2;PMS_P1;PMS_P2;Temp;Humidity;BMP_temperature;BMP_pressure;BME280_temperature;BME280_humidity;BME280_pressure;Samples;Min_cycle;Max_cycle;Signal;HPM_P1;HPM_P2
2022/01/27 05:02:32;;;;;;;36.35;19.42;;;5.40;99.90;;;;;;5047213;23;20413;-67
2022/01/27 05:04:58;;;;;;;32.22;15.48;;;5.40;99.90;;;;;;4958831;28;20580;-67
2022/01/27 05:07:25;;;;;;;32.30;15.95;;;5.40;99.90;;;;;;4966178;28;20209;-67
2022/01/27 05:09:57;;;;;;;36.20;18.55;;;5.30;99.90;;;;;;4965727;28;20211;-68
2022/01/27 05:12:32;;;;;;;37.03;19.13;;;5.30;99.90;;;;;;4958120;28;20315;-67
2022/01/27 05:15:00;;;;;;;36.95;17.60;;;5.30;99.90;;;;;;4963329;28;20299;-67
2022/01/27 05:17:28;;;;;;;38.47;17.25;;;5.30;99.90;;;;;;4964044;28;20232;-67
2022/01/27 05:19:54;;;;;;;32.30;16.90;;;5.40;99.90;;;;;;4957739;28;20716;-68
2022/01/27 05:22:21;;;;;;;31.05;16.83;;;5.30;99.90;;;;;;4965603;28;20364;-67
2022/01/27 05:24:47;;;;;;;33.53;19.27;;;5.30;99.90;;;;;;4962293;28;20216;-67
2022/01/27 05:27:14;;;;;;;33.45;16.80;;;5.30;99.90;;;;;;4961098;28;20205;-67
2022/01/27 05:29:41;;;;;;;30.33;16.38;;;5.30;99.90;;;;;;4958362;28;20213;-68
2022/01/27 05:32:08;;;;;;;31.83;16.13;;;5.30;99.90;;;;;;4960517;28;20225;-67
2022/01/27 05:34:36;;;;;;;25.58;15.57;;;5.30;99.90;;;;;;4966210;28;20212;-67
2022/01/27 05:37:04;;;;;;;31.27;15.23;;;5.20;99.90;;;;;;4972834;28;20212;-67
2022/01/27 05:39:30;;;;;;;24.27;13.95;;;5.20;99.90;;;;;;4960390;28;20733;-67
2022/01/27 05:41:57;;;;;;;28.52;15.27;;;5.20;99.90;;;;;;4968234;28;20224;-67
2022/01/27 05:44:24;;;;;;;24.00;12.93;;;5.20;99.90;;;;;;4958923;28;20213;-67
2022/01/27 05:46:50;;;;;;;24.88;14.15;;;5.20;99.90;;;;;;4960194;28;20599;-67
2022/01/27 05:49:17;;;;;;;28.25;15.43;;;5.20;99.90;;;;;;4967556;28;20201;-67
2022/01/27 05:51:45;;;;;;;16.70;10.23;;;5.10;99.90;;;;;;4963876;28;20232;-68
2022/01/27 05:54:12;;;;;;;27.67;16.90;;;5.10;99.90;;;;;;4962373;28;20212;-68
2022/01/27 05:56:38;;;;;;;33.53;17.42;;;5.10;99.90;;;;;;4960883;28;20498;-68
2022/01/27 05:59:05;;;;;;;30.95;14.63;;;5.10;99.90;;;;;;4971640;28;20205;-68
2022/01/27 06:01:32;;;;;;;29.58;14.85;;;5.10;99.90;;;;;;4961373;28;20276;-68
2022/01/27 06:03:58;;;;;;;27.73;14.13;;;5.10;99.90;;;;;;4968443;28;20209;-68
2022/01/27 06:06:25;;;;;;;32.13;17.92;;;5.10;99.90;;;;;;4966719;28;20208;-68
2022/01/27 06:08:53;;;;;;;24.58;14.43;;;5.10;99.90;;;;;;4959646;28;20204;-68
2022/01/27 06:11:20;;;;;;;26.10;15.23;;;5.00;99.90;;;;;;4967672;28;20274;-68
2022/01/27 06:13:48;;;;;;;22.88;12.93;;;5.00;99.90;;;;;;4956257;28;20204;-68
2022/01/27 06:16:15;;;;;;;21.48;13.02;;;5.00;99.90;;;;;;4957721;28;20341;-67
2022/01/27 06:18:42;;;;;;;27.60;14.23;;;5.00;99.90;;;;;;4971294;28;20205;-67
2022/01/27 06:21:10;;;;;;;26.00;13.63;;;5.00;99.90;;;;;;4968202;28;20623;-67
2022/01/27 06:23:37;;;;;;;24.08;12.90;;;5.00;99.90;;;;;;4962842;28;20203;-68
2022/01/27 06:26:06;;;;;;;21.27;13.52;;;5.00;99.90;;;;;;4960261;28;20287;-68
2022/01/27 06:28:32;;;;;;;25.75;13.95;;;4.90;99.90;;;;;;4965363;28;20364;-68
2022/01/27 06:30:59;;;;;;;25.20;13.23;;;5.00;99.90;;;;;;4963048;28;20224;-68
2022/01/27 06:33:26;;;;;;;22.60;11.25;;;4.90;99.90;;;;;;4965693;28;20268;-67
2022/01/27 06:35:53;;;;;;;22.75;13.25;;;5.00;99.90;;;;;;4970385;28;20553;-68
2022/01/27 06:38:19;;;;;;;19.70;11.65;;;4.90;99.90;;;;;;4974192;28;20663;-68
2022/01/27 06:40:46;;;;;;;24.08;14.50;;;5.00;99.90;;;;;;4972380;28;20772;-68
2022/01/27 06:43:15;;;;;;;23.08;13.95;;;4.90;99.90;;;;;;4962923;28;20201;-68
2022/01/27 06:45:42;;;;;;;27.98;14.15;;;5.00;99.90;;;;;;4965310;28;20205;-68
2022/01/27 06:48:08;;;;;;;23.33;13.20;;;5.00;99.90;;;;;;4957821;28;20289;-66
2022/01/27 06:50:37;;;;;;;27.88;15.13;;;5.00;99.90;;;;;;4964478;28;20228;-66
2022/01/27 06:53:04;;;;;;;18.67;11.50;;;5.00;99.90;;;;;;4961979;28;20232;-67
2022/01/27 06:55:31;;;;;;;18.60;10.50;;;5.00;99.90;;;;;;4965765;28;20226;-66
2022/01/27 06:57:57;;;;;;;20.60;13.75;;;5.00;99.90;;;;;;4963312;28;20205;-65
2022/01/27 07:00:25;;;;;;;24.40;15.05;;;5.00;99.90;;;;;;4964684;28;20279;-66
2022/01/27 07:02:53;;;;;;;25.80;13.73;;;5.00;99.90;;;;;;4956294;28;20213;-67
2022/01/27 07:05:19;;;;;;;27.90;14.00;;;5.00;99.90;;;;;;4955947;28;20205;-67
2022/01/27 07:07:46;;;;;;;22.65;14.43;;;5.00;99.90;;;;;;4968928;28;20207;-67
2022/01/27 07:10:13;;;;;;;26.63;15.15;;;5.10;99.90;;;;;;4970653;28;20657;-66
2022/01/27 07:12:40;;;;;;;27.30;15.30;;;5.20;99.90;;;;;;4959677;28;20257;-66
2022/01/27 07:15:08;;;;;;;20.98;12.82;;;5.20;99.90;;;;;;4968336;28;20201;-66
2022/01/27 07:17:36;;;;;;;19.20;13.27;;;5.10;99.90;;;;;;4967367;28;20287;-66
2022/01/27 07:20:03;;;;;;;21.63;12.25;;;5.10;99.90;;;;;;4962788;28;20220;-66
2022/01/27 07:22:32;;;;;;;24.80;13.32;;;5.10;99.90;;;;;;4967862;28;20229;-66
2022/01/27 07:24:59;;;;;;;19.02;11.32;;;5.10;99.90;;;;;;4956878;28;20267;-67
2022/01/27 07:27:25;;;;;;;27.80;15.13;;;5.00;99.90;;;;;;4961194;28;20268;-67
2022/01/27 07:29:52;;;;;;;22.80;12.88;;;5.10;99.90;;;;;;4969358;28;20209;-66
2022/01/27 07:32:19;;;;;;;24.83;15.60;;;5.10;99.90;;;;;;4955700;28;20280;-67
2022/01/27 07:34:47;;;;;;;23.63;14.20;;;5.10;99.90;;;;;;4965493;28;20206;-66
2022/01/27 07:37:13;;;;;;;20.63;12.63;;;5.10;99.90;;;;;;4971815;28;20609;-66
2022/01/27 07:39:40;;;;;;;24.77;12.02;;;5.10;99.90;;;;;;4971433;28;20287;-66
2022/01/27 07:42:07;;;;;;;22.38;13.05;;;5.10;99.90;;;;;;4972527;28;20225;-66
2022/01/27 07:44:34;;;;;;;17.52;11.93;;;5.10;99.90;;;;;;4956389;28;20201;-65
2022/01/27 07:47:01;;;;;;;24.25;13.80;;;5.10;99.90;;;;;;4953612;28;20635;-66
2022/01/27 07:49:28;;;;;;;22.98;12.63;;;5.10;99.90;;;;;;4960161;28;20204;-66
2022/01/27 07:51:56;;;;;;;20.48;14.38;;;5.10;99.90;;;;;;4967116;28;20247;-66
2022/01/27 07:54:23;;;;;;;18.58;12.63;;;5.10;99.90;;;;;;4967585;28;20291;-65
2022/01/27 07:56:50;;;;;;;21.55;13.48;;;5.10;99.90;;;;;;4971603;28;20251;-66
2022/01/27 07:59:17;;;;;;;26.30;13.50;;;5.00;99.90;;;;;;4972568;28;20293;-66
2022/01/27 08:01:43;;;;;;;20.17;10.90;;;5.00;99.90;;;;;;4960574;28;20225;-66
2022/01/27 08:04:11;;;;;;;23.25;13.20;;;5.00;99.90;;;;;;4957815;28;20204;-66
2022/01/27 08:06:38;;;;;;;22.40;14.68;;;5.00;99.90;;;;;;4960346;28;20248;-66
2022/01/27 08:09:06;;;;;;;28.67;16.58;;;5.10;99.90;;;;;;4968140;28;20333;-66
2022/01/27 08:11:33;;;;;;;21.27;13.27;;;5.10;99.90;;;;;;4971015;28;20279;-67
2022/01/27 08:14:00;;;;;;;21.08;12.93;;;5.10;99.90;;;;;;4960012;28;20256;-66
2022/01/27 08:16:26;;;;;;;21.23;14.10;;;5.10;99.90;;;;;;4953527;28;20250;-66
2022/01/27 08:18:53;;;;;;;20.30;12.02;;;5.10;99.90;;;;;;4953098;28;20239;-66
2022/01/27 08:21:20;;;;;;;20.42;12.25;;;5.10;99.90;;;;;;4964852;28;20236;-66
2022/01/27 08:23:46;;;;;;;20.73;11.80;;;5.10;99.90;;;;;;4971667;28;20340;-66
2022/01/27 08:26:27;;;;;;;19.63;11.50;;;5.10;99.90;;;;;;4958628;28;20209;-66
2022/01/27 08:29:05;;;;;;;19.98;11.75;;;5.10;99.90;;;;;;4953056;28;20345;-65
2022/01/27 08:31:41;;;;;;;19.20;9.90;;;5.10;99.90;;;;;;4966766;28;20740;-65
2022/01/27 08:34:14;;;;;;;17.35;11.10;;;5.20;99.90;;;;;;4971733;28;20204;-67
2022/01/27 08:36:41;;;;;;;20.23;11.80;;;5.20;99.90;;;;;;4968818;28;20200;-67
2022/01/27 08:39:07;;;;;;;16.85;11.27;;;5.20;99.90;;;;;;4970802;28;20213;-67
2022/01/27 08:41:36;;;;;;;20.63;10.75;;;5.20;99.90;;;;;;4963257;28;20228;-67
2022/01/27 08:44:02;;;;;;;19.45;12.07;;;5.20;99.90;;;;;;4967282;28;20356;-67
2022/01/27 08:46:29;;;;;;;17.70;9.70;;;5.20;99.90;;;;;;4954793;28;20205;-66
2022/01/27 08:48:56;;;;;;;17.20;10.85;;;5.20;99.90;;;;;;4963728;28;20278;-66
2022/01/27 08:51:22;;;;;;;18.00;10.57;;;5.20;99.90;;;;;;4961366;28;20644;-66
2022/01/27 08:53:50;;;;;;;16.70;9.85;;;5.30;99.90;;;;;;4959652;28;20625;-66
2022/01/27 08:56:17;;;;;;;16.02;9.43;;;5.30;99.90;;;;;;4968456;28;20208;-67
2022/01/27 08:58:45;;;;;;;12.07;8.00;;;5.30;99.90;;;;;;4959501;28;20541;-67
2022/01/27 09:01:12;;;;;;;15.75;8.25;;;5.30;99.90;;;;;;4955685;28;20230;-66
2022/01/27 09:03:39;;;;;;;15.38;9.65;;;5.30;99.90;;;;;;4959784;28;20209;-66
2022/01/27 09:06:06;;;;;;;12.98;8.48;;;5.30;99.90;;;;;;4958762;28;20251;-66
2022/01/27 09:08:32;;;;;;;16.17;9.43;;;5.30;99.90;;;;;;4965669;28;20830;-67
2022/01/27 09:10:59;;;;;;;15.52;10.50;;;5.40;99.90;;;;;;4959751;28;20276;-66
2022/01/27 09:13:26;;;;;;;12.55;8.52;;;5.40;99.90;;;;;;4969672;28;20271;-66
2022/01/27 09:15:58;;;;;;;11.35;7.68;;;5.40;99.90;;;;;;4960433;28;20337;-66
2022/01/27 09:18:24;;;;;;;11.90;7.03;;;5.40;99.90;;;;;;4956063;28;20686;-66
2022/01/27 09:20:51;;;;;;;9.50;7.18;;;5.40;99.90;;;;;;4957660;28;20240;-67
2022/01/27 09:23:18;;;;;;;11.95;9.25;;;5.40;99.90;;;;;;4960584;28;20228;-64
2022/01/27 09:25:48;;;;;;;10.15;8.25;;;5.40;99.90;;;;;;4957540;28;20581;-66
2022/01/27 09:28:15;;;;;;;14.93;10.10;;;5.40;99.90;;;;;;4954446;28;20209;-65
2022/01/27 09:30:44;;;;;;;12.10;8.38;;;5.40;99.90;;;;;;4961995;28;20221;-66
2022/01/27 09:33:13;;;;;;;13.27;9.27;;;5.50;99.90;;;;;;4960941;28;20201;-67
2022/01/27 09:35:40;;;;;;;15.07;9.25;;;5.50;99.90;;;;;;4963675;28;20272;-65
2022/01/27 09:38:06;;;;;;;15.10;9.52;;;5.50;99.90;;;;;;4961981;28;20280;-65
2022/01/27 09:40:34;;;;;;;15.82;10.02;;;5.50;99.90;;;;;;4966883;28;20302;-66
2022/01/27 09:43:03;;;;;;;16.38;10.30;;;5.60;99.90;;;;;;4971786;28;20239;-66
2022/01/27 09:45:31;;;;;;;12.63;8.65;;;5.60;99.90;;;;;;4974510;28;20215;-66
2022/01/27 09:48:01;;;;;;;12.13;8.85;;;5.60;99.90;;;;;;4957791;28;20212;-65
2022/01/27 09:50:46;;;;;;;10.50;8.13;;;5.70;99.90;;;;;;4965720;28;20546;-66
2022/01/27 09:53:13;;;;;;;10.63;8.55;;;5.70;99.90;;;;;;4974173;28;20212;-66
2022/01/27 09:55:40;;;;;;;12.32;8.48;;;5.70;99.90;;;;;;4956573;28;20217;-65
2022/01/27 09:58:08;;;;;;;10.15;8.05;;;5.70;99.90;;;;;;4954455;28;20209;-66
2022/01/27 10:00:35;;;;;;;11.48;7.90;;;5.70;99.90;;;;;;4954710;28;20233;-66
2022/01/27 10:03:07;;;;;;;12.85;7.90;;;5.80;99.90;;;;;;4954673;28;20280;-66
2022/01/27 10:05:36;;;;;;;12.55;9.40;;;5.80;99.90;;;;;;4955324;28;20220;-67
2022/01/27 10:08:05;;;;;;;10.98;8.70;;;5.80;99.90;;;;;;4954815;28;20217;-67
2022/01/27 10:10:39;;;;;;;13.70;8.55;;;5.80;99.90;;;;;;4956231;28;22021;-67
2022/01/27 10:13:08;;;;;;;8.23;7.30;;;5.90;99.90;;;;;;4961816;28;20216;-67
2022/01/27 10:15:40;;;;;;;10.07;8.13;;;5.90;99.90;;;;;;4960316;28;20204;-67
2022/01/27 10:18:11;;;;;;;9.50;6.25;;;5.90;99.90;;;;;;4974043;28;20585;-67
2022/01/27 10:20:40;;;;;;;10.57;6.90;;;5.90;99.90;;;;;;4964694;28;20260;-67
2022/01/27 10:23:13;;;;;;;9.63;6.63;;;5.90;99.90;;;;;;4954648;28;20285;-67
2022/01/27 10:25:46;;;;;;;8.98;6.70;;;5.90;99.90;;;;;;4954165;28;20304;-67
2022/01/27 10:28:41;;;;;;;7.20;5.55;;;6.00;99.90;;;;;;4954365;28;20239;-67
2022/01/27 10:31:10;;;;;;;7.05;5.35;;;6.00;99.90;;;;;;4970188;28;20220;-67
2022/01/27 10:33:49;;;;;;;5.75;5.20;;;6.00;99.90;;;;;;4974242;28;20208;-67
2022/01/27 10:36:29;;;;;;;6.32;5.72;;;6.00;99.90;;;;;;4974063;28;20240;-67
2022/01/27 10:38:57;;;;;;;7.10;5.00;;;6.10;99.90;;;;;;4970508;28;20280;-67
2022/01/27 10:41:25;;;;;;;8.20;6.00;;;6.10;99.90;;;;;;4975391;28;20239;-66
2022/01/27 10:44:06;;;;;;;9.25;7.07;;;6.10;99.90;;;;;;4976096;28;20263;-67
2022/01/27 10:46:33;;;;;;;9.73;7.13;;;6.10;99.90;;;;;;4963773;28;20280;-67
2022/01/27 10:49:04;;;;;;;8.30;6.65;;;6.20;99.90;;;;;;4954793;28;20243;-67
2022/01/27 10:51:41;;;;;;;10.18;8.05;;;6.20;99.90;;;;;;4973357;28;20221;-67
2022/01/27 10:54:19;;;;;;;11.80;7.80;;;6.20;99.90;;;;;;4973147;28;20224;-66
2022/01/27 10:56:46;;;;;;;13.95;7.95;;;6.20;99.90;;;;;;4973927;28;20204;-66
2022/01/27 10:59:15;;;;;;;12.68;8.88;;;6.30;99.90;;;;;;4972329;28;20211;-65
2022/01/27 11:01:43;;;;;;;12.55;8.65;;;6.40;99.90;;;;;;4953873;28;20304;-66
2022/01/27 11:04:12;;;;;;;15.30;9.40;;;6.50;99.90;;;;;;4953878;28;20212;-66
2022/01/27 11:06:55;;;;;;;16.17;10.55;;;6.50;99.90;;;;;;4953842;28;20209;-65
2022/01/27 11:09:22;;;;;;;11.82;8.80;;;6.50;99.90;;;;;;4954017;28;20304;-65
2022/01/27 11:11:49;;;;;;;11.25;9.35;;;6.60;99.90;;;;;;4963718;28;20585;-66
2022/01/27 11:14:16;;;;;;;11.63;7.97;;;6.60;99.90;;;;;;4953646;28;20213;-66
2022/01/27 11:16:44;;;;;;;12.90;9.27;;;6.70;99.90;;;;;;4953735;28;20268;-66
2022/01/27 11:19:23;;;;;;;12.75;7.18;;;6.70;99.90;;;;;;4953319;28;20212;-66
2022/01/27 11:21:58;;;;;;;9.02;8.07;;;6.70;99.90;;;;;;4953230;28;20235;-66
2022/01/27 11:24:31;;;;;;;12.23;7.78;;;6.80;99.90;;;;;;4953153;28;20209;-66
2022/01/27 11:27:01;;;;;;;7.93;7.15;;;6.80;99.90;;;;;;4952463;28;20213;-66
2022/01/27 11:29:29;;;;;;;11.82;7.68;;;6.90;99.90;;;;;;4953578;28;20212;-66
2022/01/27 11:32:17;;;;;;;10.45;7.78;;;6.90;99.90;;;;;;4953225;28;20603;-66
2022/01/27 11:34:46;;;;;;;8.73;6.93;;;7.00;99.90;;;;;;4952939;28;20752;-65
2022/01/27 11:37:18;;;;;;;9.95;6.60;;;7.00;99.90;;;;;;4953261;28;20209;-65
2022/01/27 11:39:50;;;;;;;9.43;7.30;;;7.00;99.90;;;;;;4962321;28;20296;-66
2022/01/27 11:42:37;;;;;;;8.57;6.00;;;7.00;99.90;;;;;;4966637;28;20697;-66
2022/01/27 11:45:26;;;;;;;9.02;6.95;;;7.10;99.90;;;;;;4971977;28;20215;-67
2022/01/27 11:47:56;;;;;;;7.80;6.88;;;7.10;99.90;;;;;;4972363;28;20213;-66
2022/01/27 11:50:32;;;;;;;7.05;6.20;;;7.20;99.90;;;;;;4963209;28;20213;-66
2022/01/27 11:53:01;;;;;;;10.82;7.25;;;7.20;99.90;;;;;;4953721;28;20297;-66
2022/01/27 11:55:45;;;;;;;13.55;8.68;;;7.30;99.90;;;;;;4952776;28;20213;-67
2022/01/27 11:58:29;;;;;;;9.73;7.38;;;7.30;99.90;;;;;;4952644;28;20313;-67
2022/01/27 12:01:11;;;;;;;11.73;8.77;;;7.40;99.90;;;;;;4964894;28;20232;-67
2022/01/27 12:03:39;;;;;;;7.90;6.63;;;7.40;99.90;;;;;;4953239;28;20209;-66
2022/01/27 12:06:15;;;;;;;11.23;8.77;;;7.50;99.90;;;;;;4953346;28;20269;-66
2022/01/27 12:08:44;;;;;;;8.27;7.05;;;7.60;99.90;;;;;;4952417;28;20216;-66
2022/01/27 12:11:12;;;;;;;10.50;7.03;;;7.60;99.90;;;;;;4959200;28;20308;-66
2022/01/27 12:14:03;;;;;;;8.95;7.70;;;7.60;99.90;;;;;;4952092;28;20545;-66
2022/01/27 12:16:52;;;;;;;12.23;7.95;;;7.70;99.90;;;;;;4953285;28;20244;-67
2022/01/27 12:19:20;;;;;;;6.10;5.50;;;7.60;99.90;;;;;;4952397;28;20735;-66
2022/01/27 12:22:01;;;;;;;9.85;6.68;;;7.70;99.90;;;;;;4953513;28;20708;-66
2022/01/27 12:24:30;;;;;;;7.28;6.35;;;7.70;99.90;;;;;;4951838;28;20205;-66
2022/01/27 12:27:01;;;;;;;7.57;6.85;;;7.70;99.90;;;;;;4952493;28;20219;-66
2022/01/27 12:29:31;;;;;;;9.18;6.50;;;7.80;99.90;;;;;;4952847;28;20217;-66
2022/01/27 12:32:00;;;;;;;6.88;6.10;;;7.80;99.90;;;;;;4952425;28;20229;-66
2022/01/27 12:34:27;;;;;;;11.95;8.35;;;7.90;99.90;;;;;;4952695;28;20205;-67
2022/01/27 12:36:56;;;;;;;7.40;5.68;;;7.90;99.90;;;;;;4952197;28;20213;-67
2022/01/27 12:39:25;;;;;;;5.50;5.15;;;7.80;99.90;;;;;;4952000;28;20217;-67
2022/01/27 12:41:54;;;;;;;7.50;6.88;;;7.90;99.90;;;;;;4956832;28;20229;-66
2022/01/27 12:44:21;;;;;;;12.45;6.45;;;7.90;99.90;;;;;;4963358;28;20205;-67
2022/01/27 12:47:13;;;;;;;14.85;7.20;;;7.90;99.90;;;;;;4971475;28;20204;-67
2022/01/27 12:49:43;;;;;;;9.98;7.40;;;8.00;99.90;;;;;;4948936;28;20532;-68
2022/01/27 12:52:12;;;;;;;8.15;6.60;;;8.00;99.90;;;;;;4951971;28;20229;-67
2022/01/27 12:54:40;;;;;;;7.97;6.07;;;8.00;99.90;;;;;;4959286;28;20622;-67
2022/01/27 12:57:09;;;;;;;12.82;6.72;;;8.10;99.90;;;;;;4958545;28;20197;-65
2022/01/27 12:59:38;;;;;;;6.95;5.68;;;8.10;99.90;;;;;;4970316;28;20586;-66
2022/01/27 13:02:07;;;;;;;13.55;5.88;;;8.10;99.90;;;;;;4970733;28;20236;-66
2022/01/27 13:04:35;;;;;;;8.57;6.25;;;8.20;99.90;;;;;;4969691;28;20232;-67
2022/01/27 13:07:02;;;;;;;15.65;6.25;;;8.30;99.90;;;;;;4966575;28;20638;-69
2022/01/27 13:09:30;;;;;;;12.20;5.60;;;8.40;99.90;;;;;;4959169;28;20209;-67
2022/01/27 13:11:59;;;;;;;6.78;6.18;;;8.50;99.90;;;;;;4960329;28;20312;-67
2022/01/27 13:14:28;;;;;;;14.93;5.93;;;8.40;99.90;;;;;;4951503;28;20205;-68
2022/01/27 13:16:59;;;;;;;17.13;7.82;;;8.40;99.90;;;;;;4952041;28;20567;-67
2022/01/27 13:19:43;;;;;;;10.10;6.43;;;8.30;99.90;;;;;;4952132;28;20626;-67
2022/01/27 13:22:15;;;;;;;19.40;10.55;;;8.30;99.90;;;;;;4968738;28;20322;-67
2022/01/27 13:24:47;;;;;;;11.43;4.97;;;8.30;99.90;;;;;;4969121;28;20215;-67
2022/01/27 13:27:13;;;;;;;12.32;6.25;;;8.30;99.90;;;;;;4970095;28;20760;-67
2022/01/27 13:29:43;;;;;;;11.82;6.55;;;8.20;99.90;;;;;;4955461;28;20213;-68
2022/01/27 13:32:10;;;;;;;18.85;6.05;;;8.20;99.90;;;;;;4968563;28;20225;-67
2022/01/27 13:34:43;;;;;;;9.15;5.47;;;8.20;99.90;;;;;;4963418;28;20205;-66
2022/01/27 13:37:10;;;;;;;10.25;5.28;;;8.20;99.90;;;;;;4967669;28;20213;-67
2022/01/27 13:42:29;;;;;;;10.07;3.92;;;8.20;99.90;;;;;;4969657;28;20236;-67
2022/01/27 13:44:59;;;;;;;3.22;3.00;;;8.20;99.90;;;;;;4955950;28;20550;-67
2022/01/27 13:47:27;;;;;;;9.50;3.90;;;8.20;99.90;;;;;;4951463;28;20213;-65
2022/01/27 13:49:55;;;;;;;4.57;2.92;;;8.30;99.90;;;;;;4961835;28;20239;-66
2022/01/27 13:52:25;;;;;;;8.13;3.53;;;8.30;99.90;;;;;;4968909;28;20307;-66
2022/01/27 13:54:53;;;;;;;5.57;2.83;;;8.30;99.90;;;;;;4955314;28;20631;-66
2022/01/27 13:57:22;;;;;;;3.50;3.20;;;8.40;99.90;;;;;;4958120;28;20205;-66
2022/01/27 13:59:54;;;;;;;4.30;3.05;;;8.40;99.90;;;;;;4961543;28;20732;-66
2022/01/27 14:02:24;;;;;;;5.82;3.53;;;8.40;99.90;;;;;;4969507;28;20577;-67
2022/01/27 14:04:52;;;;;;;4.15;3.35;;;8.40;99.90;;;;;;4973937;28;20212;-67
2022/01/27 14:07:26;;;;;;;9.20;3.70;;;8.40;99.90;;;;;;4972993;28;20579;-67
2022/01/27 14:09:54;;;;;;;12.27;3.55;;;8.40;99.90;;;;;;4972069;28;20196;-67
2022/01/27 14:12:27;;;;;;;6.38;3.28;;;8.30;99.90;;;;;;4958769;28;20702;-67
2022/01/27 14:14:54;;;;;;;4.88;2.65;;;8.30;99.90;;;;;;4955312;28;20209;-67
2022/01/27 14:17:24;;;;;;;9.27;2.72;;;8.30;99.90;;;;;;4969689;28;20268;-67
2022/01/27 14:19:52;;;;;;;14.45;4.82;;;8.30;99.90;;;;;;4969332;28;20213;-67
2022/01/27 14:22:21;;;;;;;9.23;2.38;;;8.30;99.90;;;;;;4962958;28;20280;-66
2022/01/27 14:24:59;;;;;;;7.32;2.60;;;8.20;99.90;;;;;;4960737;28;20233;-67
2022/01/27 14:27:34;;;;;;;10.98;2.60;;;8.20;99.90;;;;;;4966129;28;20300;-67
2022/01/27 14:30:01;;;;;;;6.72;3.33;;;8.20;99.90;;;;;;4970219;28;20208;-67
2022/01/27 14:32:31;;;;;;;6.45;2.85;;;8.20;99.90;;;;;;4966364;28;20275;-67
2022/01/27 14:34:58;;;;;;;6.53;2.80;;;8.20;99.90;;;;;;4959995;28;20217;-68
2022/01/27 14:37:24;;;;;;;7.75;2.15;;;8.20;99.90;;;;;;4965218;28;20243;-68
2022/01/27 14:39:51;;;;;;;6.70;2.33;;;8.20;99.90;;;;;;4965451;28;21242;-68
2022/01/27 14:42:23;;;;;;;7.82;3.00;;;8.30;99.90;;;;;;4965747;28;20707;-65
2022/01/27 14:44:50;;;;;;;7.53;2.72;;;8.30;99.90;;;;;;4962582;28;20645;-67
2022/01/27 14:47:17;;;;;;;7.65;2.83;;;8.30;99.90;;;;;;4963285;28;20205;-66
2022/01/27 14:49:47;;;;;;;8.98;2.90;;;8.30;99.90;;;;;;4970309;28;20918;-67
2022/01/27 14:52:15;;;;;;;4.78;1.80;;;8.30;99.90;;;;;;4963942;28;20228;-67
2022/01/27 14:54:42;;;;;;;5.15;2.55;;;8.20;99.90;;;;;;4972272;28;20209;-68
2022/01/27 14:57:10;;;;;;;3.90;1.60;;;8.20;99.90;;;;;;4969788;28;20205;-67
2022/01/27 14:59:39;;;;;;;4.78;1.63;;;8.20;99.90;;;;;;4982692;28;20205;-66
2022/01/27 15:02:06;;;;;;;6.28;1.83;;;8.20;99.90;;;;;;4977971;28;20736;-68
2022/01/27 15:04:34;;;;;;;8.07;2.15;;;8.10;99.90;;;;;;4970248;28;20217;-68
2022/01/27 15:07:03;;;;;;;4.43;2.28;;;8.10;99.90;;;;;;4967244;28;20592;-68
2022/01/27 15:09:30;;;;;;;6.82;1.48;;;8.00;99.90;;;;;;4965570;28;20219;-68
2022/01/27 15:11:57;;;;;;;5.00;1.67;;;8.00;99.90;;;;;;4970415;28;20598;-68
2022/01/27 15:19:53;;;;;;;6.65;1.85;;;7.90;99.90;;;;;;4958495;28;20642;-68
2022/01/27 15:22:24;;;;;;;2.63;1.20;;;7.90;99.90;;;;;;4970474;28;20728;-69
2022/01/27 15:24:51;;;;;;;1.77;1.67;;;8.00;99.90;;;;;;4964899;28;20209;-68
2022/01/27 15:27:17;;;;;;;8.57;2.30;;;8.00;99.90;;;;;;4970278;28;20275;-67
2022/01/27 15:29:45;;;;;;;7.55;2.47;;;8.00;99.90;;;;;;4967399;28;20204;-68
2022/01/27 15:32:13;;;;;;;6.57;2.78;;;8.00;99.90;;;;;;4958540;28;21000;-67
2022/01/27 15:34:41;;;;;;;3.85;1.83;;;7.90;99.90;;;;;;4961027;28;20245;-67
2022/01/27 15:37:07;;;;;;;9.52;2.78;;;7.90;99.90;;;;;;4957911;28;20216;-68
2022/01/27 15:39:36;;;;;;;5.25;2.10;;;7.80;99.90;;;;;;4957333;28;20212;-69
2022/01/27 15:42:03;;;;;;;11.15;3.83;;;7.80;99.90;;;;;;4968922;28;20224;-69
2022/01/27 15:44:29;;;;;;;5.97;3.10;;;7.80;99.90;;;;;;4965504;28;20204;-68
2022/01/27 15:46:56;;;;;;;14.77;8.43;;;7.80;99.90;;;;;;4963860;28;20215;-68
2022/01/27 15:49:23;;;;;;;6.28;3.67;;;7.80;99.90;;;;;;4968499;28;20212;-69
2022/01/27 15:51:50;;;;;;;4.53;2.58;;;7.80;99.90;;;;;;4949627;28;20229;-67
2022/01/27 15:54:16;;;;;;;7.85;3.10;;;7.80;99.90;;;;;;4961478;28;20208;-68
2022/01/27 15:56:44;;;;;;;8.82;2.38;;;7.80;99.90;;;;;;4965057;28;20271;-68
2022/01/27 15:59:12;;;;;;;9.52;3.60;;;7.80;99.90;;;;;;4966668;28;20849;-68
2022/01/27 16:01:38;;;;;;;6.15;3.95;;;7.80;99.90;;;;;;4959612;28;20683;-69
2022/01/27 16:04:07;;;;;;;6.35;3.35;;;7.80;99.90;;;;;;4949155;28;20289;-67
2022/01/27 16:06:35;;;;;;;7.95;5.43;;;7.80;99.90;;;;;;4954042;28;20217;-69
2022/01/27 16:09:02;;;;;;;10.00;3.25;;;7.70;99.90;;;;;;4955097;28;20218;-68
2022/01/27 16:11:29;;;;;;;10.18;2.85;;;7.70;99.90;;;;;;4966969;28;20633;-69
2022/01/27 16:13:57;;;;;;;3.50;1.50;;;7.70;99.90;;;;;;4959692;28;20278;-67
2022/01/27 16:16:24;;;;;;;1.95;1.27;;;7.60;99.90;;;;;;4959599;28;20585;-68
2022/01/27 16:18:51;;;;;;;8.38;1.10;;;7.50;99.90;;;;;;4959833;28;20247;-68
2022/01/27 16:21:18;;;;;;;2.05;1.73;;;7.40;99.90;;;;;;4959818;28;20544;-68
2022/01/27 16:23:45;;;;;;;5.10;1.50;;;7.30;99.90;;;;;;4962386;28;20316;-68
2022/01/27 16:26:11;;;;;;;6.18;2.00;;;7.20;99.90;;;;;;4963636;28;20208;-69
2022/01/27 16:28:38;;;;;;;7.43;2.22;;;7.10;99.90;;;;;;4963037;28;20213;-69
2022/01/27 16:31:07;;;;;;;4.78;1.80;;;7.00;99.90;;;;;;4957844;28;20232;-69
2022/01/27 16:33:35;;;;;;;3.30;1.23;;;7.00;99.90;;;;;;4959517;28;20205;-69
2022/01/27 16:36:02;;;;;;;2.38;1.27;;;6.90;99.90;;;;;;4954439;28;20209;-67
2022/01/27 16:38:29;;;;;;;2.83;1.58;;;6.90;99.90;;;;;;4962243;28;20220;-68
2022/01/27 16:40:56;;;;;;;6.13;1.70;;;6.80;99.90;;;;;;4959975;28;20319;-68
2022/01/27 16:43:23;;;;;;;3.97;1.20;;;6.80;99.90;;;;;;4969265;28;20650;-67
2022/01/27 16:45:50;;;;;;;6.07;1.48;;;6.80;99.90;;;;;;4959322;28;20209;-68
2022/01/27 16:48:20;;;;;;;2.97;1.60;;;6.70;99.90;;;;;;4953614;28;20209;-68
2022/01/27 16:50:46;;;;;;;6.40;2.20;;;6.70;99.90;;;;;;4966257;28;20709;-68
2022/01/27 16:53:13;;;;;;;6.15;2.10;;;6.70;99.90;;;;;;4970270;28;20292;-69
2022/01/27 16:55:41;;;;;;;3.38;1.60;;;6.80;99.90;;;;;;4966898;28;20685;-69
2022/01/27 16:58:08;;;;;;;4.22;2.22;;;6.80;99.90;;;;;;4951229;28;20205;-68
2022/01/27 17:00:36;;;;;;;5.07;1.70;;;6.80;99.90;;;;;;4961640;28;20223;-68
2022/01/27 17:03:05;;;;;;;0.95;0.73;;;6.80;99.90;;;;;;4961656;28;20280;-68
2022/01/27 17:05:33;;;;;;;2.70;0.93;;;6.60;99.90;;;;;;4954127;28;20663;-68
2022/01/27 17:08:00;;;;;;;3.65;0.90;;;6.50;99.90;;;;;;4958897;28;20201;-68
2022/01/27 17:10:27;;;;;;;3.72;1.60;;;6.40;99.90;;;;;;4955888;28;20307;-69
2022/01/27 17:12:53;;;;;;;5.07;0.95;;;6.30;99.90;;;;;;4968671;28;20232;-67
2022/01/27 17:15:20;;;;;;;4.10;1.55;;;6.30;99.90;;;;;;4964182;28;20264;-67
2022/01/27 17:17:48;;;;;;;5.80;1.90;;;6.20;99.90;;;;;;4968745;28;20626;-69
2022/01/27 17:20:15;;;;;;;1.30;1.20;;;6.10;99.90;;;;;;4970304;28;20212;-69
2022/01/27 17:22:43;;;;;;;2.95;1.40;;;6.10;99.90;;;;;;4966074;28;20217;-68
2022/01/27 17:25:12;;;;;;;6.55;1.52;;;6.00;99.90;;;;;;4961044;28;20287;-68
2022/01/27 17:27:40;;;;;;;9.82;1.65;;;6.00;99.90;;;;;;4968511;28;20213;-69
2022/01/27 17:30:09;;;;;;;13.85;2.97;;;5.90;99.90;;;;;;4956835;28;20209;-67
2022/01/27 17:32:36;;;;;;;10.35;2.08;;;5.90;99.90;;;;;;4957854;28;20697;-67
2022/01/27 17:35:04;;;;;;;6.47;1.90;;;5.90;99.90;;;;;;4961636;28;20205;-66
2022/01/27 17:37:31;;;;;;;9.00;1.48;;;5.90;99.90;;;;;;4961262;28;20220;-67
2022/01/27 17:40:00;;;;;;;14.95;2.33;;;5.90;99.90;;;;;;4969205;28;20201;-67
2022/01/27 17:42:27;;;;;;;5.30;2.28;;;6.00;99.90;;;;;;4966254;28;20232;-66
2022/01/27 17:45:01;;;;;;;12.27;2.13;;;6.00;99.90;;;;;;4962256;28;20241;-66
2022/01/27 17:47:30;;;;;;;6.28;2.08;;;6.00;99.90;;;;;;4971949;28;20200;-67
2022/01/27 17:49:58;;;;;;;4.47;1.67;;;6.00;99.90;;;;;;4954629;28;20205;-67
2022/01/27 17:52:25;;;;;;;8.68;2.03;;;5.90;99.90;;;;;;4959878;28;20258;-66
2022/01/27 17:54:52;;;;;;;5.63;1.67;;;5.90;99.90;;;;;;4965426;28;20196;-67
2022/01/27 17:57:20;;;;;;;9.10;2.15;;;6.00;99.90;;;;;;4973233;28;20208;-67
2022/01/27 17:59:47;;;;;;;7.47;3.00;;;6.00;99.90;;;;;;4962155;28;20240;-67
2022/01/27 18:02:13;;;;;;;9.75;3.00;;;5.90;99.90;;;;;;4966481;28;20307;-67
2022/01/27 18:04:40;;;;;;;3.03;1.60;;;5.90;99.90;;;;;;4965475;28;20592;-67
2022/01/27 18:07:07;;;;;;;8.75;1.95;;;5.90;99.90;;;;;;4965276;28;20204;-67